Time;durP1;ratioP1;P1;durP2;ratioP2;P2;SDS_P1;SDS_P2;PMS_P1;PMS_P2;Temp;Humidity;BMP_temperature;BMP_pressure;BME280_temperature;BME280_humidity;BME280_pressure;Samples;Min_cycle;Max_cycle;Signal;HPM_P1;HPM_P2
2021/06/17 00:01:06;;;;;;;;;11.67;11.00;;;;;28.26;45.36;100388.94;5079486;28;45377;-89
2021/06/17 00:03:31;;;;;;;;;13.33;12.33;;;;;28.24;46.18;100387.34;5077247;28;45576;-92
2021/06/17 00:05:57;;;;;;;;;14.00;14.00;;;;;28.19;45.73;100385.78;5079220;27;45822;-90
2021/06/17 00:08:22;;;;;;;;;13.67;12.00;;;;;28.23;46.14;100394.56;5078880;27;45480;-87
2021/06/17 00:10:49;;;;;;;;;13.33;13.33;;;;;28.28;46.24;100405.09;5085942;27;45286;-88
2021/06/17 00:13:18;;;;;;;;;15.67;13.67;;;;;28.24;45.71;100396.28;5087541;27;45302;-90
2021/06/17 00:15:45;;;;;;;;;12.00;11.00;;;;;28.14;45.15;100378.91;5080833;27;45439;-90
2021/06/17 00:18:12;;;;;;;;;11.00;11.00;;;;;28.19;45.26;100402.00;5081627;27;45377;-88
2021/06/17 00:20:37;;;;;;;;;14.00;13.00;;;;;28.17;45.00;100408.47;5081904;27;45341;-91
2021/06/17 00:23:04;;;;;;;;;13.33;12.00;;;;;28.13;45.69;100396.97;5078000;27;45612;-91
2021/06/17 00:25:29;;;;;;;;;12.33;12.33;;;;;28.16;45.21;100396.78;5081327;27;45352;-89
2021/06/17 00:27:54;;;;;;;;;10.67;10.67;;;;;28.18;45.52;100399.38;5082270;28;45345;-88
2021/06/17 00:30:21;;;;;;;;;14.33;11.00;;;;;28.12;45.57;100391.66;5083627;27;45314;-89
2021/06/17 00:32:46;;;;;;;;;15.00;13.33;;;;;28.14;45.78;100396.00;5090677;27;45378;-89
2021/06/17 00:35:13;;;;;;;;;14.67;13.00;;;;;28.00;45.29;100364.47;5095396;27;47812;-89
2021/06/17 00:37:39;;;;;;;;;12.33;12.33;;;;;28.11;45.24;100377.28;5101392;27;45236;-89
2021/06/17 00:40:07;;;;;;;;;13.00;13.00;;;;;28.14;45.23;100371.69;5087493;27;45314;-88
2021/06/17 00:42:33;;;;;;;;;14.00;13.00;;;;;28.07;46.04;100354.97;5091987;28;45277;-89
2021/06/17 00:44:59;;;;;;;;;13.00;12.67;;;;;28.16;46.50;100361.66;5096488;27;45489;-88
2021/06/17 00:47:25;;;;;;;;;15.00;13.67;;;;;28.09;46.18;100349.47;5098701;27;45339;-88
2021/06/17 00:49:51;;;;;;;;;13.33;13.33;;;;;28.12;46.44;100337.63;5100090;27;44681;-88
2021/06/17 00:52:17;;;;;;;;;14.67;12.00;;;;;28.07;46.90;100332.50;5102204;27;45052;-87
2021/06/17 00:54:43;;;;;;;;;13.00;12.00;;;;;28.11;46.49;100327.78;5095231;27;45645;-90
2021/06/17 00:57:09;;;;;;;;;14.00;13.00;;;;;28.05;45.66;100307.41;5090995;28;45224;-88
2021/06/17 00:59:36;;;;;;;;;13.67;13.67;;;;;28.14;46.52;100322.19;5095618;27;45365;-90
2021/06/17 01:02:02;;;;;;;;;12.00;11.00;;;;;28.04;46.52;100321.91;5092957;28;44693;-89
2021/06/17 01:04:29;;;;;;;;;11.67;11.00;;;;;28.03;46.32;100318.31;5091064;27;48386;-88
2021/06/17 01:06:57;;;;;;;;;13.67;13.67;;;;;28.15;46.86;100327.50;5086346;27;45330;-90
2021/06/17 01:09:39;;;;;;;;;11.33;11.33;;;;;28.05;46.90;100302.88;5085870;27;45300;-88
2021/06/17 01:12:37;;;;;;;;;13.67;12.33;;;;;28.15;47.43;100326.63;5085872;27;45377;-90
2021/06/17 01:15:09;;;;;;;;;13.00;13.00;;;;;28.12;47.09;100316.00;5084201;27;45579;-89
2021/06/17 01:17:40;;;;;;;;;15.33;14.00;;;;;28.08;45.88;100310.81;5090920;28;45343;-88
2021/06/17 01:20:14;;;;;;;;;13.67;12.67;;;;;28.03;46.72;100306.66;5093407;27;45296;-90
2021/06/17 01:23:10;;;;;;;;;14.00;12.33;;;;;28.09;46.91;100312.53;5090676;27;45140;-88
2021/06/17 01:25:54;;;;;;;;;16.00;13.33;;;;;28.11;45.43;100319.69;5085582;28;45468;-89
2021/06/17 01:28:19;;;;;;;;;14.00;11.00;;;;;28.05;45.32;100312.81;5083978;28;45860;-90
2021/06/17 01:30:48;;;;;;;;;11.67;11.67;;;;;28.07;45.77;100335.19;5084561;27;45302;-90
2021/06/17 01:33:15;;;;;;;;;14.00;12.00;;;;;28.05;46.02;100337.13;5083115;27;45365;-90
2021/06/17 01:35:49;;;;;;;;;12.00;12.00;;;;;28.03;46.41;100331.84;5082015;27;46633;-89
2021/06/17 01:38:22;;;;;;;;;14.00;12.00;;;;;27.96;45.98;100325.09;5080232;28;45532;-88
2021/06/17 01:40:49;;;;;;;;;13.00;12.33;;;;;27.89;45.91;100321.03;5081468;27;45422;-91
2021/06/17 01:43:17;;;;;;;;;10.67;10.67;;;;;27.91;45.97;100356.91;5081379;27;45203;-88
2021/06/17 01:45:46;;;;;;;;;11.00;11.00;;;;;27.82;46.03;100458.25;5081409;27;45595;-89
2021/06/17 01:48:11;;;;;;;;;13.00;12.33;;;;;27.80;45.80;100566.38;5084392;27;45305;-89
2021/06/17 01:50:37;;;;;;;;;12.00;10.00;;;;;27.75;47.38;100566.63;5088365;27;45289;-89
2021/06/17 01:53:04;;;;;;;;;10.00;7.00;;;;;27.50;48.18;100637.31;5084967;27;45370;-88
2021/06/17 01:55:32;;;;;;;;;14.33;8.33;;;;;27.14;51.36;100656.34;5081301;27;45300;-90
2021/06/17 01:58:02;;;;;;;;;9.00;7.33;;;;;26.75;64.10;100639.50;5079486;28;45408;-88
2021/06/17 02:00:29;;;;;;;;;6.67;6.00;;;;;26.15;55.54;100665.81;5081050;27;45332;-88
2021/06/17 02:02:55;;;;;;;;;8.67;4.00;;;;;25.78;55.93;100681.94;5081081;28;45342;-88
2021/06/17 02:05:22;;;;;;;;;12.00;9.00;;;;;25.37;58.43;100589.63;5080715;27;45301;-88
2021/06/17 02:07:49;;;;;;;;;7.00;6.00;;;;;25.02;58.12;100555.38;5080430;27;45354;-88
2021/06/17 02:10:19;;;;;;;;;9.67;6.00;;;;;24.79;59.14;100529.53;5079549;28;45339;-88
2021/06/17 02:12:45;;;;;;;;;10.33;6.67;;;;;24.60;59.55;100525.00;5079526;28;45596;-88
2021/06/17 02:15:12;;;;;;;;;6.67;5.33;;;;;24.45;59.83;100530.09;5079294;27;47469;-90
2021/06/17 02:17:41;;;;;;;;;9.33;8.33;;;;;24.26;61.24;100500.50;5078780;27;45996;-89
2021/06/17 02:20:07;;;;;;;;;12.00;7.00;;;;;24.23;60.81;100514.94;5080827;27;45373;-90
2021/06/17 02:22:35;;;;;;;;;8.33;6.00;;;;;24.11;60.81;100516.31;5081558;27;45358;-89
2021/06/17 02:25:00;;;;;;;;;10.67;7.00;;;;;24.08;60.91;100532.53;5080471;27;45277;-90
2021/06/17 02:27:31;;;;;;;;;8.00;7.00;;;;;24.10;61.04;100616.59;5079225;27;45416;-89
2021/06/17 02:30:01;;;;;;;;;8.00;8.00;;;;;23.87;61.28;100709.66;5080619;27;45388;-89
2021/06/17 02:32:29;;;;;;;;;11.00;6.33;;;;;23.94;61.71;100782.78;5080486;27;45207;-90
2021/06/17 02:34:57;;;;;;;;;12.67;9.67;;;;;23.84;62.12;100817.13;5080298;27;46442;-91
2021/06/17 02:37:24;;;;;;;;;9.67;9.00;;;;;23.57;63.22;100790.38;5080421;27;45345;-89
2021/06/17 02:39:51;;;;;;;;;8.00;8.00;;;;;23.48;63.09;100792.47;5086329;27;45494;-88
2021/06/17 02:42:19;;;;;;;;;12.33;7.00;;;;;23.44;63.26;100803.34;5081857;27;45168;-90
2021/06/17 02:44:48;;;;;;;;;13.00;10.00;;;;;23.29;63.71;100757.34;5078627;27;47261;-90
2021/06/17 02:47:15;;;;;;;;;10.00;8.33;;;;;23.32;64.38;100740.28;5080117;27;45496;-89
2021/06/17 02:49:42;;;;;;;;;6.67;6.67;;;;;23.22;65.26;100721.00;5079584;27;45638;-87
2021/06/17 02:52:08;;;;;;;;;12.33;8.00;;;;;23.20;64.65;100715.69;5080180;28;45185;-88
2021/06/17 02:54:34;;;;;;;;;11.67;8.67;;;;;23.14;65.10;100687.28;5079643;27;46747;-88
2021/06/17 02:57:22;;;;;;;;;9.00;7.67;;;;;23.20;65.15;100707.66;5079542;27;45401;-89
2021/06/17 03:00:04;;;;;;;;;12.00;8.67;;;;;23.16;65.10;100711.34;5078388;28;45511;-89
2021/06/17 03:02:55;;;;;;;;;11.67;7.00;;;;;23.09;65.22;100688.38;5079781;27;45385;-89
2021/06/17 03:05:25;;;;;;;;;10.00;7.33;;;;;23.02;65.25;100659.09;5078210;27;47806;-89
2021/06/17 03:07:58;;;;;;;;;9.33;8.00;;;;;23.07;65.58;100650.03;5077608;28;45706;-90
2021/06/17 03:10:27;;;;;;;;;8.00;8.00;;;;;22.92;65.27;100620.16;5078180;28;45188;-90
2021/06/17 03:12:54;;;;;;;;;9.00;8.00;;;;;23.01;65.21;100589.47;5078117;27;45418;-88
2021/06/17 03:15:20;;;;;;;;;6.67;6.67;;;;;22.87;65.17;100577.44;5079036;27;45447;-89
2021/06/17 03:17:50;;;;;;;;;9.33;9.00;;;;;22.92;65.81;100569.25;5078946;27;45407;-90
2021/06/17 03:20:19;;;;;;;;;10.67;9.00;;;;;22.86;66.53;100558.75;5079161;27;45342;-89
2021/06/17 03:22:50;;;;;;;;;11.67;8.67;;;;;22.94;65.40;100586.16;5079417;27;45269;-91
2021/06/17 03:25:19;;;;;;;;;11.00;7.67;;;;;22.93;65.45;100584.38;5077724;27;46886;-89
2021/06/17 03:27:49;;;;;;;;;11.00;9.00;;;;;22.78;66.68;100575.97;5079073;27;45421;-89
2021/06/17 03:30:19;;;;;;;;;10.67;8.00;;;;;22.90;66.54;100592.56;5077989;27;45508;-89
2021/06/17 03:32:46;;;;;;;;;7.00;7.00;;;;;22.88;65.80;100573.84;5079144;27;45232;-90
2021/06/17 03:35:12;;;;;;;;;10.67;8.67;;;;;22.82;66.08;100546.41;5080263;27;46018;-89
2021/06/17 03:37:39;;;;;;;;;9.00;8.00;;;;;22.81;66.62;100523.22;5082456;27;45180;-89
2021/06/17 03:40:05;;;;;;;;;8.33;7.67;;;;;22.78;66.63;100484.03;5079085;27;45572;-89
2021/06/17 03:42:33;;;;;;;;;8.33;7.67;;;;;22.77;67.46;100468.88;5077904;28;45421;-89
2021/06/17 03:45:00;;;;;;;;;14.33;8.33;;;;;22.72;67.35;100450.28;5077480;27;48098;-90
2021/06/17 03:47:27;;;;;;;;;8.00;8.00;;;;;22.73;67.87;100464.56;5076953;28;45457;-90
2021/06/17 03:49:55;;;;;;;;;9.33;8.33;;;;;22.81;68.26;100497.28;5078685;27;45606;-90
2021/06/17 03:52:21;;;;;;;;;11.67;9.67;;;;;22.73;67.49;100494.91;5077473;28;45573;-88
2021/06/17 03:54:48;;;;;;;;;11.33;9.00;;;;;22.84;67.79;100534.72;5077272;27;47298;-90
2021/06/17 03:57:15;;;;;;;;;11.00;10.00;;;;;22.75;67.37;100535.91;5078706;27;45439;-89
2021/06/17 03:59:42;;;;;;;;;11.00;6.67;;;;;22.79;67.98;100542.91;5077516;27;45367;-89
2021/06/17 04:02:09;;;;;;;;;12.00;9.33;;;;;22.77;68.28;100549.25;5077348;27;45676;-89
2021/06/17 04:04:36;;;;;;;;;11.00;6.67;;;;;22.81;67.61;100566.09;5077321;27;48103;-90
2021/06/17 04:07:12;;;;;;;;;9.00;7.00;;;;;22.74;67.41;100568.97;5078428;27;45432;-90
2021/06/17 04:09:40;;;;;;;;;9.00;8.00;;;;;22.58;67.41;100543.66;5094397;27;45408;-90
2021/06/17 04:12:10;;;;;;;;;9.67;9.00;;;;;22.64;67.86;100549.66;5078804;27;45487;-90
2021/06/17 04:14:40;;;;;;;;;7.67;7.67;;;;;22.72;68.19;100557.44;5077042;27;48187;-90
2021/06/17 04:17:07;;;;;;;;;9.00;8.33;;;;;22.72;68.67;100543.16;5076749;28;45853;-90
2021/06/17 04:19:36;;;;;;;;;9.00;9.00;;;;;22.61;68.45;100531.00;5078503;27;45306;-90
2021/06/17 04:22:04;;;;;;;;;12.00;10.00;;;;;22.62;68.76;100518.50;5078446;27;45392;-89
2021/06/17 04:24:33;;;;;;;;;7.67;7.67;;;;;22.65;68.49;100523.75;5076881;28;47263;-89
2021/06/17 04:27:00;;;;;;;;;12.67;10.00;;;;;22.74;68.65;100533.28;5078583;27;45390;-91
2021/06/17 04:29:27;;;;;;;;;8.00;7.67;;;;;22.65;68.60;100537.16;5078466;27;45845;-90
2021/06/17 04:31:55;;;;;;;;;9.00;8.00;;;;;22.72;68.26;100552.09;5079483;27;45260;-89
2021/06/17 04:34:22;;;;;;;;;6.67;6.67;;;;;22.60;68.10;100526.59;5079693;28;45330;-90
2021/06/17 04:36:49;;;;;;;;;8.00;8.00;;;;;22.63;68.82;100539.88;5078576;27;45649;-89
2021/06/17 04:39:15;;;;;;;;;10.67;9.00;;;;;22.71;69.14;100555.72;5078728;27;45400;-90
2021/06/17 04:41:43;;;;;;;;;7.33;7.33;;;;;22.60;69.05;100536.44;5077111;27;45383;-90
2021/06/17 04:44:09;;;;;;;;;11.33;8.33;;;;;22.58;68.87;100532.94;5076227;28;48392;-91
2021/06/17 04:46:36;;;;;;;;;7.67;7.67;;;;;22.66;67.93;100538.91;5077624;27;45382;-91
2021/06/17 04:49:03;;;;;;;;;6.33;6.33;;;;;22.59;68.65;100538.22;5076206;28;45374;-90
2021/06/17 04:51:32;;;;;;;;;7.67;6.33;;;;;22.56;69.09;100530.31;5077852;27;45211;-90
2021/06/17 04:53:58;;;;;;;;;8.00;7.67;;;;;22.61;68.14;100527.47;5078167;28;45426;-90
2021/06/17 04:56:23;;;;;;;;;9.33;8.67;;;;;22.62;68.90;100529.22;5076504;28;46021;-90
2021/06/17 04:58:50;;;;;;;;;9.00;8.00;;;;;22.56;68.65;100530.31;5078366;28;45420;-89
2021/06/17 05:01:18;;;;;;;;;7.00;7.00;;;;;22.71;68.97;100550.34;5081369;27;45343;-90
2021/06/17 05:03:45;;;;;;;;;7.00;6.00;;;;;22.64;69.32;100543.44;5079373;27;45629;-90
2021/06/17 05:06:11;;;;;;;;;12.33;8.67;;;;;22.63;68.15;100542.53;5077886;27;45500;-90
2021/06/17 05:11:21;;;;;;;;;11.00;10.67;;;;;22.64;69.68;100538.94;5077837;28;45404;-91
2021/06/17 05:13:47;;;;;;;;;10.33;8.00;;;;;22.70;69.06;100537.88;5077957;28;46816;-91
2021/06/17 05:16:12;;;;;;;;;9.00;6.33;;;;;22.67;69.75;100527.28;5077587;27;45398;-90
2021/06/17 05:18:38;;;;;;;;;8.33;8.00;;;;;22.69;68.58;100545.97;5093814;27;45326;-90
2021/06/17 05:21:04;;;;;;;;;10.00;7.00;;;;;22.77;69.05;100565.31;5078120;27;45329;-89
2021/06/17 05:23:30;;;;;;;;;14.00;8.33;;;;;22.77;68.98;100559.97;5078203;27;45416;-89
2021/06/17 05:25:58;;;;;;;;;10.00;9.67;;;;;22.83;68.88;100572.25;5080947;28;46152;-89
2021/06/17 05:28:25;;;;;;;;;11.00;8.00;;;;;22.78;69.01;100557.22;5082181;27;45252;-90
2021/06/17 05:30:58;;;;;;;;;10.33;9.67;;;;;22.84;69.85;100564.19;5078727;27;45429;-90
2021/06/17 05:33:24;;;;;;;;;9.33;7.67;;;;;22.79;68.47;100548.28;5075898;27;47619;-90
2021/06/17 05:35:49;;;;;;;;;8.67;6.33;;;;;22.76;68.75;100545.69;5075994;28;45456;-89
2021/06/17 05:38:16;;;;;;;;;9.00;9.00;;;;;22.80;68.87;100559.88;5077607;27;45485;-90
2021/06/17 05:40:42;;;;;;;;;9.33;8.00;;;;;22.84;68.93;100563.31;5079899;27;45498;-90
2021/06/17 05:43:07;;;;;;;;;8.00;6.00;;;;;22.95;68.15;100579.00;5100563;27;45421;-89
2021/06/17 05:45:32;;;;;;;;;9.00;7.67;;;;;22.87;68.90;100574.78;5101718;28;45006;-90
2021/06/17 05:47:58;;;;;;;;;7.00;7.00;;;;;22.92;68.47;100584.44;5101850;28;45385;-89
2021/06/17 05:50:23;;;;;;;;;11.00;8.00;;;;;22.90;68.61;100581.84;5089397;27;45537;-90
2021/06/17 05:52:49;;;;;;;;;8.00;7.00;;;;;22.97;68.92;100591.38;5077485;27;47691;-90
2021/06/17 05:55:14;;;;;;;;;9.00;6.00;;;;;22.98;68.68;100593.16;5086998;28;45476;-89
2021/06/17 05:57:40;;;;;;;;;11.67;9.33;;;;;22.94;68.53;100583.47;5090018;28;45483;-90
2021/06/17 06:00:07;;;;;;;;;8.67;7.00;;;;;22.99;68.55;100589.50;5087463;28;45406;-89
2021/06/17 06:02:33;;;;;;;;;8.67;6.67;;;;;22.94;68.50;100586.16;5088086;27;47039;-91
2021/06/17 06:04:59;;;;;;;;;7.33;7.00;;;;;22.96;68.81;100597.69;5083160;27;45362;-90
2021/06/17 06:07:24;;;;;;;;;6.00;6.00;;;;;23.12;68.47;100615.88;5081535;27;45675;-89
2021/06/17 06:09:50;;;;;;;;;9.00;9.00;;;;;22.99;68.74;100596.72;5081166;27;45371;-92
2021/06/17 06:12:15;;;;;;;;;11.00;10.00;;;;;23.08;67.98;100609.75;5079362;27;47206;-89
2021/06/17 06:14:41;;;;;;;;;10.00;10.00;;;;;23.14;68.85;100630.09;5081294;27;45488;-90
2021/06/17 06:17:07;;;;;;;;;8.33;8.33;;;;;23.08;68.58;100622.28;5080409;27;45374;-90
2021/06/17 06:19:34;;;;;;;;;10.00;9.00;;;;;23.11;68.14;100630.22;5079993;27;45430;-91
2021/06/17 06:22:00;;;;;;;;;11.67;9.00;;;;;23.20;67.87;100640.63;5080488;28;47619;-92
2021/06/17 06:24:25;;;;;;;;;10.33;8.33;;;;;23.24;68.13;100644.94;5081283;27;45355;-90
2021/06/17 06:26:56;;;;;;;;;11.33;8.00;;;;;23.21;68.29;100647.72;5081363;27;45377;-91
2021/06/17 06:29:22;;;;;;;;;9.33;8.00;;;;;23.27;68.19;100661.84;5086846;28;45489;-89
2021/06/17 06:31:47;;;;;;;;;8.00;7.33;;;;;23.34;67.80;100683.00;5095448;28;47279;-89
2021/06/17 06:34:12;;;;;;;;;11.67;8.33;;;;;23.36;68.70;100682.94;5098175;28;45394;-91
2021/06/17 06:36:38;;;;;;;;;9.00;7.33;;;;;23.41;68.04;100680.97;5097722;27;44821;-90
2021/06/17 06:39:04;;;;;;;;;10.00;8.00;;;;;23.44;67.49;100682.63;5098671;27;44803;-90
2021/06/17 06:41:29;;;;;;;;;9.33;7.00;;;;;23.33;67.71;100669.66;5090618;27;47417;-90
2021/06/17 06:43:55;;;;;;;;;11.33;8.00;;;;;23.40;67.52;100673.84;5102680;27;45326;-91
2021/06/17 06:46:20;;;;;;;;;7.67;6.00;;;;;23.44;67.13;100677.25;5103074;28;45240;-92
2021/06/17 06:48:46;;;;;;;;;5.33;4.33;;;;;23.46;67.36;100692.41;5121411;27;44834;-91
2021/06/17 06:51:11;;;;;;;;;6.33;5.67;;;;;23.48;67.03;100701.28;5104961;27;45546;-89
2021/06/17 06:53:36;;;;;;;;;7.67;7.00;;;;;23.46;66.83;100697.78;5105997;27;44652;-91
2021/06/17 06:56:02;;;;;;;;;9.67;6.00;;;;;23.56;67.24;100711.69;5104412;27;45131;-91
2021/06/17 06:58:27;;;;;;;;;9.67;7.33;;;;;23.54;67.38;100707.34;5102919;27;44799;-92
2021/06/17 07:00:53;;;;;;;;;6.00;6.00;;;;;23.51;67.21;100699.41;5093688;28;48134;-93
2021/06/17 07:03:19;;;;;;;;;8.00;7.00;;;;;23.60;66.60;100721.38;5083998;27;46217;-91
2021/06/17 07:05:45;;;;;;;;;8.33;7.00;;;;;23.58;66.95;100714.34;5081924;27;45307;-91
2021/06/17 07:08:10;;;;;;;;;7.00;7.00;;;;;23.52;67.09;100710.06;5086164;27;45446;-91
2021/06/17 07:10:45;;;;;;;;;8.67;4.00;;;;;23.65;66.61;100729.28;5083833;27;48046;-90
2021/06/17 07:13:11;;;;;;;;;8.00;8.00;;;;;23.56;66.76;100721.59;5081469;27;45569;-92
2021/06/17 07:15:37;;;;;;;;;7.67;6.00;;;;;23.65;66.72;100737.31;5081684;27;45417;-89
2021/06/17 07:18:03;;;;;;;;;6.67;6.33;;;;;23.61;67.21;100722.28;5079855;28;45577;-91
2021/06/17 07:20:29;;;;;;;;;8.00;7.00;;;;;23.61;66.99;100714.22;5081228;27;45682;-91
2021/06/17 07:22:55;;;;;;;;;7.00;7.00;;;;;23.75;66.78;100728.94;5079111;27;45425;-91
2021/06/17 07:25:23;;;;;;;;;8.00;8.00;;;;;23.81;67.05;100734.94;5079235;27;45287;-89
2021/06/17 07:27:48;;;;;;;;;8.33;5.67;;;;;23.75;66.19;100728.94;5079513;28;45449;-89
2021/06/17 07:30:14;;;;;;;;;6.67;6.00;;;;;23.77;66.07;100737.81;5080176;27;45645;-92
2021/06/17 07:32:40;;;;;;;;;6.33;6.33;;;;;23.82;65.69;100750.09;5079057;28;45415;-88
2021/06/17 07:35:06;;;;;;;;;4.00;4.00;;;;;23.75;65.86;100739.66;5081828;27;45311;-91
2021/06/17 07:37:31;;;;;;;;;9.00;6.67;;;;;23.73;65.68;100737.06;5080667;27;45505;-88
2021/06/17 07:39:57;;;;;;;;;7.33;7.33;;;;;23.71;65.77;100723.66;5080072;27;45539;-91
2021/06/17 07:42:25;;;;;;;;;7.00;6.00;;;;;23.86;65.96;100750.84;5078580;27;45443;-92
2021/06/17 07:44:51;;;;;;;;;9.67;7.00;;;;;23.78;65.19;100729.69;5078665;28;45403;-90
2021/06/17 07:47:17;;;;;;;;;8.00;6.00;;;;;23.85;65.46;100748.22;5081111;28;45295;-91
2021/06/17 07:49:43;;;;;;;;;7.67;6.00;;;;;23.80;64.91;100749.28;5080324;27;45374;-92
2021/06/17 07:52:08;;;;;;;;;7.33;7.33;;;;;23.79;64.99;100749.34;5080177;28;45396;-90
2021/06/17 07:54:34;;;;;;;;;8.00;6.33;;;;;23.83;64.80;100765.28;5079784;27;45374;-91
2021/06/17 07:57:00;;;;;;;;;7.67;7.00;;;;;23.80;64.36;100751.09;5080754;27;45337;-91
2021/06/17 07:59:26;;;;;;;;;9.00;5.00;;;;;23.81;64.37;100755.53;5079805;27;45575;-90
2021/06/17 08:01:52;;;;;;;;;7.00;6.00;;;;;23.82;64.89;100763.53;5078759;28;45467;-91
2021/06/17 08:04:18;;;;;;;;;8.67;6.00;;;;;23.74;65.35;100738.78;5080768;27;45372;-92
2021/06/17 08:06:44;;;;;;;;;5.00;5.00;;;;;23.70;64.43;100732.66;5080189;27;45461;-91
2021/06/17 08:09:09;;;;;;;;;4.67;4.67;;;;;23.83;64.25;100742.94;5077868;27;47832;-90
2021/06/17 08:11:37;;;;;;;;;5.33;4.00;;;;;24.01;64.11;100751.19;5077970;27;45450;-90
2021/06/17 08:14:02;;;;;;;;;4.67;4.67;;;;;24.23;64.13;100756.63;5079361;27;45688;-89
2021/06/17 08:16:28;;;;;;;;;5.00;5.00;;;;;24.38;63.90;100744.41;5079505;27;45428;-89
2021/06/17 08:18:54;;;;;;;;;5.00;5.00;;;;;24.57;63.21;100751.72;5080847;27;46526;-88
2021/06/17 08:21:21;;;;;;;;;5.00;4.00;;;;;24.80;62.55;100760.63;5078156;27;45561;-89
2021/06/17 08:23:47;;;;;;;;;6.33;4.67;;;;;24.98;62.08;100752.75;5077864;28;45409;-90
2021/06/17 08:26:13;;;;;;;;;4.33;3.00;;;;;25.29;61.77;100769.34;5078566;27;45348;-90
2021/06/17 08:28:38;;;;;;;;;5.00;5.00;;;;;25.43;61.29;100768.72;5077697;27;46948;-91
2021/06/17 08:31:06;;;;;;;;;4.67;3.33;;;;;25.63;60.01;100770.53;5079876;28;45475;-89
2021/06/17 08:33:33;;;;;;;;;3.67;3.00;;;;;25.62;59.78;100749.03;5078175;28;45337;-90
2021/06/17 08:36:02;;;;;;;;;5.00;5.00;;;;;25.71;59.69;100758.53;5078304;27;45161;-91
2021/06/17 08:38:28;;;;;;;;;4.00;4.00;;;;;25.87;59.46;100777.56;5078959;27;45471;-89
2021/06/17 08:40:54;;;;;;;;;4.00;3.67;;;;;25.93;59.31;100760.25;5078768;27;45314;-90
2021/06/17 08:43:19;;;;;;;;;2.00;2.00;;;;;25.97;58.91;100746.56;5077863;27;45367;-91
2021/06/17 08:45:45;;;;;;;;;5.00;4.00;;;;;26.12;58.48;100766.47;5078640;27;45598;-91
2021/06/17 08:48:10;;;;;;;;;4.00;4.00;;;;;26.23;58.73;100765.97;5077618;27;47403;-92
2021/06/17 08:50:36;;;;;;;;;4.00;3.00;;;;;26.47;57.92;100781.94;5078654;27;45267;-91
2021/06/17 08:53:01;;;;;;;;;4.67;3.67;;;;;26.51;56.45;100771.00;5077749;28;45368;-93
2021/06/17 08:55:28;;;;;;;;;5.00;3.33;;;;;26.51;57.02;100765.59;5079424;28;45301;-91
2021/06/17 08:57:57;;;;;;;;;5.33;4.00;;;;;26.56;57.03;100777.03;5078758;27;45504;-92
2021/06/17 09:00:23;;;;;;;;;3.33;3.33;;;;;26.54;56.55;100778.94;5079416;27;45461;-90
2021/06/17 09:03:05;;;;;;;;;3.33;3.33;;;;;26.53;57.16;100779.88;5079918;28;45313;-90
2021/06/17 09:05:34;;;;;;;;;5.67;4.33;;;;;26.51;56.53;100766.47;5080249;27;45432;-92
2021/06/17 09:08:00;;;;;;;;;7.67;4.00;;;;;26.54;57.01;100770.84;5078178;27;45496;-94
2021/06/17 09:10:26;;;;;;;;;4.00;4.00;;;;;26.76;57.07;100769.78;5078347;27;45335;-91
2021/06/17 09:12:53;;;;;;;;;2.00;2.00;;;;;26.89;56.75;100781.66;5078331;27;45326;-90
2021/06/17 09:15:45;;;;;;;;;8.00;5.67;;;;;27.16;57.03;100783.94;5078563;27;45461;-89
2021/06/17 09:18:15;;;;;;;;;4.00;3.67;;;;;27.46;56.12;100782.38;5077981;28;46055;-89
2021/06/17 09:20:44;;;;;;;;;4.00;4.00;;;;;27.64;55.25;100787.75;5078184;28;45430;-90
2021/06/17 09:23:26;;;;;;;;;3.00;3.00;;;;;27.76;54.67;100791.63;5078407;27;45450;-90
2021/06/17 09:25:58;;;;;;;;;4.67;3.33;;;;;27.96;54.73;100789.69;5076864;28;45453;-92
2021/06/17 09:28:24;;;;;;;;;4.00;4.00;;;;;28.32;54.17;100787.69;5077767;27;46165;-88
2021/06/17 09:30:49;;;;;;;;;4.00;4.00;;;;;28.46;52.38;100792.34;5077968;27;45278;-91
2021/06/17 09:33:15;;;;;;;;;4.00;4.00;;;;;28.31;53.01;100786.81;5077062;27;45409;-90
2021/06/17 09:35:56;;;;;;;;;4.00;3.00;;;;;28.25;52.14;100781.75;5076691;27;45435;-88
2021/06/17 09:38:24;;;;;;;;;6.00;3.33;;;;;28.28;52.60;100789.69;5081505;27;45449;-89
2021/06/17 09:40:50;;;;;;;;;4.00;4.00;;;;;28.31;51.45;100786.81;5081407;27;45196;-90
2021/06/17 09:43:19;;;;;;;;;4.00;3.00;;;;;28.53;51.82;100773.94;5081246;27;45398;-88
2021/06/17 09:45:59;;;;;;;;;4.00;3.00;;;;;28.63;52.06;100768.84;5080159;27;45418;-89
2021/06/17 09:48:29;;;;;;;;;4.33;4.33;;;;;28.79;51.71;100788.59;5080360;28;47479;-90
2021/06/17 09:50:55;;;;;;;;;4.67;4.33;;;;;28.90;51.29;100800.63;5082076;27;45396;-91
2021/06/17 09:53:27;;;;;;;;;5.00;3.67;;;;;28.93;51.42;100792.34;5082526;27;45377;-91
2021/06/17 09:55:53;;;;;;;;;4.00;4.00;;;;;28.95;50.82;100782.28;5080954;28;45513;-90
2021/06/17 09:58:38;;;;;;;;;2.33;2.33;;;;;29.22;50.43;100808.69;5081423;27;46189;-88
2021/06/17 10:01:06;;;;;;;;;4.33;4.33;;;;;29.17;48.99;100804.50;5080242;28;45972;-89
2021/06/17 10:03:32;;;;;;;;;4.33;4.33;;;;;29.02;48.88;100791.75;5081466;27;45338;-88
2021/06/17 10:05:58;;;;;;;;;5.33;3.67;;;;;29.18;50.36;100790.88;5081844;27;45437;-88
2021/06/17 10:08:23;;;;;;;;;4.00;4.00;;;;;29.38;49.78;100802.31;5081827;27;45980;-88
2021/06/17 10:10:50;;;;;;;;;7.00;6.00;;;;;29.42;49.20;100795.72;5082306;27;45370;-88
2021/06/17 10:13:19;;;;;;;;;3.67;3.67;;;;;29.63;49.34;100795.38;5082184;27;45455;-88
2021/06/17 10:15:48;;;;;;;;;6.33;4.00;;;;;29.89;48.13;100795.59;5097641;27;45538;-86
2021/06/17 10:18:13;;;;;;;;;5.00;4.00;;;;;30.09;48.89;100793.44;5080363;27;47397;-89
2021/06/17 10:20:39;;;;;;;;;4.00;3.00;;;;;30.32;48.62;100796.50;5080455;28;45333;-88
2021/06/17 10:23:07;;;;;;;;;3.00;3.00;;;;;30.48;48.01;100782.81;5087709;27;45443;-89
2021/06/17 10:25:34;;;;;;;;;3.00;3.00;;;;;30.71;47.69;100785.81;5093034;28;45530;-87
2021/06/17 10:28:01;;;;;;;;;3.67;3.00;;;;;30.93;46.78;100781.66;5094450;27;47853;-88
2021/06/17 10:30:48;;;;;;;;;4.00;3.00;;;;;31.20;46.20;100796.13;5095598;27;45314;-89
2021/06/17 10:33:36;;;;;;;;;4.00;3.00;;;;;31.34;45.41;100778.03;5096467;27;44616;-88
2021/06/17 10:36:21;;;;;;;;;4.00;4.00;;;;;31.55;44.86;100781.97;5095578;28;45216;-89
2021/06/17 10:39:09;;;;;;;;;3.00;3.00;;;;;31.68;43.36;100783.81;5092460;28;47433;-89
2021/06/17 10:41:47;;;;;;;;;4.67;3.33;;;;;31.79;44.82;100793.91;5097833;27;45257;-89
2021/06/17 10:44:51;;;;;;;;;2.67;2.67;;;;;31.90;43.91;100783.09;5096866;27;44645;-90
2021/06/17 10:47:39;;;;;;;;;3.67;3.67;;;;;31.90;43.79;100790.38;5092898;27;45438;-88
2021/06/17 10:50:19;;;;;;;;;4.67;4.67;;;;;31.78;43.23;100794.88;5091137;28;45448;-91
2021/06/17 10:52:45;;;;;;;;;6.00;4.33;;;;;31.68;43.58;100781.09;5099216;27;45394;-90
2021/06/17 10:55:15;;;;;;;;;3.33;3.33;;;;;31.52;43.82;100767.72;5097928;27;45377;-89
2021/06/17 10:57:50;;;;;;;;;5.00;4.67;;;;;31.54;43.13;100782.94;5097188;27;45387;-90
2021/06/17 11:00:25;;;;;;;;;6.00;3.50;;;;;31.47;43.27;100784.38;5093517;28;46711;-92
2021/06/17 11:02:55;;;;;;;;;3.00;3.00;;;;;31.42;43.84;100783.78;5093279;27;44735;-89
2021/06/17 11:05:29;;;;;;;;;4.00;2.67;;;;;31.44;43.38;100781.81;5093755;28;44779;-90
2021/06/17 11:08:13;;;;;;;;;4.33;3.67;;;;;31.46;43.49;100774.44;5087870;28;45666;-93
2021/06/17 11:10:59;;;;;;;;;5.00;4.33;;;;;31.52;42.37;100778.59;5081691;28;47731;-89
2021/06/17 11:13:34;;;;;;;;;4.00;3.33;;;;;31.45;43.01;100772.72;5079714;27;45347;-90
2021/06/17 11:16:04;;;;;;;;;7.67;6.33;;;;;31.50;43.19;100770.56;5079771;27;45363;-89
2021/06/17 11:18:55;;;;;;;;;3.00;3.00;;;;;31.67;43.14;100777.50;5079875;27;45234;-91
2021/06/17 11:21:23;;;;;;;;;3.67;3.67;;;;;31.73;42.23;100776.16;5079468;27;46223;-90
2021/06/17 11:24:21;;;;;;;;;3.33;2.67;;;;;31.80;42.54;100770.28;5079763;27;45342;-90
2021/06/17 11:26:49;;;;;;;;;5.00;4.00;;;;;31.90;42.07;100772.22;5078188;27;45409;-89
2021/06/17 11:29:20;;;;;;;;;6.00;4.00;;;;;31.93;42.59;100762.13;5079254;27;45420;-90
2021/06/17 11:31:55;;;;;;;;;4.33;4.00;;;;;31.85;41.32;100768.13;5079159;27;47339;-88